Time,TemperatureF,DewpointF,PressureIn,WindDirection,WindDirectionDegrees,WindSpeedMPH,WindSpeedGustMPH,Humidity,HourlyPrecipIn,Conditions,Clouds,dailyrainin,SolarRadiationWatts/m^2,SoftwareType,DateUTC
2013-02-05 00:10:00,32.9,21.0,29.92,ESE,116,0.0,-999.0,63,-99.99,,,0.00,0,weatherlink.com 1.10,2013-02-05 05:10:00,
2013-02-05 00:25:00,32.5,21.0,29.92,ESE,116,0.0,-999.0,64,-99.99,,,0.00,0,weatherlink.com 1.10,2013-02-05 05:25:00,
2013-02-05 00:40:00,32.0,22.0,29.91,ESE,116,0.0,-999.0,66,-99.99,,,0.00,0,weatherlink.com 1.10,2013-02-05 05:40:00,
2013-02-05 00:55:00,31.6,21.0,29.91,ESE,116,0.0,-999.0,66,-99.99,,,0.00,0,weatherlink.com 1.10,2013-02-05 05:55:00,
2013-02-05 01:10:00,31.0,21.0,29.91,ESE,116,0.0,-999.0,67,-99.99,,,0.00,0,weatherlink.com 1.10,2013-02-05 06:10:00,
2013-02-05 01:25:00,30.5,22.0,29.91,ESE,116,0.0,-999.0,70,-99.99,,,0.00,0,weatherlink.com 1.10,2013-02-05 06:25:00,
2013-02-05 01:40:00,30.1,22.0,29.91,ESE,116,0.0,-999.0,71,-99.99,,,0.00,0,weatherlink.com 1.10,2013-02-05 06:40:00,
2013-02-05 01:55:00,30.3,23.0,29.91,ESE,116,0.0,-999.0,73,-99.99,,,0.00,0,weatherlink.com 1.10,2013-02-05 06:55:00,
2013-02-05 02:10:00,30.5,23.0,29.90,ESE,116,0.0,-999.0,73,-99.99,,,0.00,0,weatherlink.com 1.10,2013-02-05 07:10:00,
2013-02-05 02:25:00,30.2,23.0,29.90,ESE,116,0.0,-999.0,74,-99.99,,,0.00,0,weatherlink.com 1.10,2013-02-05 07:25:00,
2013-02-05 02:40:00,30.3,23.0,29.90,ESE,116,0.0,-999.0,75,-99.99,,,0.00,0,weatherlink.com 1.10,2013-02-05 07:40:00,
2013-02-05 02:55:00,30.3,23.0,29.89,ESE,116,0.0,-999.0,75,-99.99,,,0.00,0,weatherlink.com 1.10,2013-02-05 07:55:00,
2013-02-05 03:10:00,30.1,23.0,29.89,ESE,116,0.0,-999.0,76,-99.99,,,0.00,0,weatherlink.com 1.10,2013-02-05 08:10:00,
2013-02-05 03:25:00,29.9,24.0,29.90,ESE,116,0.0,-999.0,77,-99.99,,,0.00,0,weatherlink.com 1.10,2013-02-05 08:25:00,
2013-02-05 03:40:00,30.0,24.0,29.89,ESE,116,0.0,-999.0,79,-99.99,,,0.00,0,weatherlink.com 1.10,2013-02-05 08:40:00,
2013-02-05 03:55:00,30.1,24.0,29.89,ESE,116,0.0,-999.0,78,-99.99,,,0.00,0,weatherlink.com 1.10,2013-02-05 08:55:00,
2013-02-05 04:10:00,30.0,24.0,29.89,ESE,116,0.0,-999.0,78,-99.99,,,0.00,0,weatherlink.com 1.10,2013-02-05 09:10:00,
2013-02-05 04:25:00,30.4,25.0,29.89,ESE,116,0.0,-999.0,79,-99.99,,,0.00,0,weatherlink.com 1.10,2013-02-05 09:25:00,
2013-02-05 04:40:00,30.8,25.0,29.89,ESE,116,0.0,-999.0,79,-99.99,,,0.00,0,weatherlink.com 1.10,2013-02-05 09:40:00,
2013-02-05 04:55:00,31.2,25.0,29.89,ESE,116,0.0,-999.0,78,-99.99,,,0.00,0,weatherlink.com 1.10,2013-02-05 09:55:00,
2013-02-05 05:10:00,31.4,26.0,29.89,ESE,116,0.0,-999.0,79,-99.99,,,0.00,0,weatherlink.com 1.10,2013-02-05 10:10:00,
2013-02-05 05:25:00,31.6,26.0,29.90,ESE,116,0.0,-999.0,80,-99.99,,,0.00,0,weatherlink.com 1.10,2013-02-05 10:25:00,
2013-02-05 05:40:00,31.8,26.0,29.90,ESE,116,0.0,-999.0,79,-99.99,,,0.00,0,weatherlink.com 1.10,2013-02-05 10:40:00,
2013-02-05 05:55:00,32.0,26.0,29.90,ESE,121,0.0,-999.0,78,-99.99,,,0.00,0,weatherlink.com 1.10,2013-02-05 10:55:00,
2013-02-05 06:10:00,32.2,26.0,29.91,ESE,121,0.0,-999.0,77,-99.99,,,0.00,0,weatherlink.com 1.10,2013-02-05 11:10:00,
2013-02-05 06:25:00,32.4,25.0,29.91,SE,134,0.0,-999.0,75,-99.99,,,0.00,0,weatherlink.com 1.10,2013-02-05 11:25:00,
2013-02-05 06:40:00,32.6,25.0,29.92,WNW,284,0.0,-999.0,73,-99.99,,,0.00,0,weatherlink.com 1.10,2013-02-05 11:40:00,
2013-02-05 06:55:00,32.7,25.0,29.92,WNW,284,0.0,-999.0,72,-99.99,,,0.00,0,weatherlink.com 1.10,2013-02-05 11:55:00,
2013-02-05 07:10:00,32.8,25.0,29.91,WNW,284,0.0,-999.0,73,-99.99,,,0.00,0,weatherlink.com 1.10,2013-02-05 12:10:00,
2013-02-05 07:25:00,33.0,25.0,29.92,WNW,284,0.0,-999.0,72,-99.99,,,0.00,0,weatherlink.com 1.10,2013-02-05 12:25:00,
2013-02-05 07:41:00,33.2,25.0,29.93,WNW,284,0.0,-999.0,72,-99.99,,,0.00,5,weatherlink.com 1.10,2013-02-05 12:41:00,
2013-02-05 07:56:00,33.3,25.0,29.94,WNW,284,1.0,-999.0,71,-99.99,,,0.00,7,weatherlink.com 1.10,2013-02-05 12:56:00,
2013-02-05 08:11:00,33.5,25.0,29.94,WNW,284,0.0,-999.0,71,-99.99,,,0.00,12,weatherlink.com 1.10,2013-02-05 13:11:00,
2013-02-05 08:26:00,33.6,25.0,29.94,WNW,284,0.0,-999.0,71,-99.99,,,0.00,14,weatherlink.com 1.10,2013-02-05 13:26:00,
2013-02-05 08:41:00,33.7,25.0,29.95,WNW,284,0.0,-999.0,71,-99.99,,,0.00,9,weatherlink.com 1.10,2013-02-05 13:41:00,
2013-02-05 08:56:00,33.7,25.0,29.95,WNW,296,0.0,-999.0,71,-99.99,,,0.00,28,weatherlink.com 1.10,2013-02-05 13:56:00,
2013-02-05 09:11:00,33.9,25.0,29.96,WNW,296,0.0,-999.0,71,-99.99,,,0.00,35,weatherlink.com 1.10,2013-02-05 14:11:00,
2013-02-05 09:26:00,34.1,26.0,29.95,West,275,0.0,-999.0,71,-99.99,,,0.00,70,weatherlink.com 1.10,2013-02-05 14:26:00,
2013-02-05 09:41:00,34.4,26.0,29.96,NW,309,2.0,-999.0,72,-99.99,,,0.00,32,weatherlink.com 1.10,2013-02-05 14:41:00,
2013-02-05 09:56:00,34.5,26.0,29.95,NW,306,0.0,-999.0,72,-99.99,,,0.00,74,weatherlink.com 1.10,2013-02-05 14:56:00,
2013-02-05 10:11:00,34.8,26.0,29.95,NW,306,0.0,-999.0,70,-99.99,,,0.00,95,weatherlink.com 1.10,2013-02-05 15:11:00,
2013-02-05 10:26:00,35.2,26.0,29.95,WNW,287,0.0,-999.0,70,-99.99,,,0.00,107,weatherlink.com 1.10,2013-02-05 15:26:00,
2013-02-05 10:41:00,35.4,27.0,29.96,WNW,294,0.0,-999.0,70,-99.99,,,0.00,76,weatherlink.com 1.10,2013-02-05 15:41:00,
2013-02-05 10:56:00,35.6,26.0,29.96,WNW,294,1.0,-999.0,69,-99.99,,,0.00,107,weatherlink.com 1.10,2013-02-05 15:56:00,
2013-02-05 11:11:00,36.0,27.0,29.96,WNW,296,0.0,-999.0,70,-99.99,,,0.00,120,weatherlink.com 1.10,2013-02-05 16:11:00,
2013-02-05 11:26:00,36.4,27.0,29.95,WNW,296,1.0,-999.0,69,-99.99,,,0.00,151,weatherlink.com 1.10,2013-02-05 16:26:00,
2013-02-05 11:41:00,36.9,27.0,29.95,WNW,296,0.0,-999.0,68,-99.99,,,0.00,128,weatherlink.com 1.10,2013-02-05 16:41:00,
2013-02-05 11:56:00,37.1,27.0,29.94,WNW,298,0.0,-999.0,66,-99.99,,,0.00,172,weatherlink.com 1.10,2013-02-05 16:56:00,
2013-02-05 12:11:00,37.5,27.0,29.93,NNE,22,0.0,-999.0,66,-99.99,,,0.00,178,weatherlink.com 1.10,2013-02-05 17:11:00,
2013-02-05 12:26:00,37.9,27.0,29.93,NE,36,0.0,-999.0,64,-99.99,,,0.00,149,weatherlink.com 1.10,2013-02-05 17:26:00,
2013-02-05 12:41:00,38.2,27.0,29.92,NE,36,0.0,-999.0,64,-99.99,,,0.00,193,weatherlink.com 1.10,2013-02-05 17:41:00,
2013-02-05 12:56:00,38.7,27.0,29.90,ENE,78,0.0,-999.0,64,-99.99,,,0.00,144,weatherlink.com 1.10,2013-02-05 17:56:00,
2013-02-05 13:11:00,38.9,27.0,29.90,East,82,0.0,-999.0,62,-99.99,,,0.00,155,weatherlink.com 1.10,2013-02-05 18:11:00,
2013-02-05 13:26:00,39.3,28.0,29.90,East,82,0.0,-999.0,64,-99.99,,,0.00,199,weatherlink.com 1.10,2013-02-05 18:26:00,
2013-02-05 13:41:00,39.8,28.0,29.89,ESE,119,0.0,-999.0,63,-99.99,,,0.00,193,weatherlink.com 1.10,2013-02-05 18:41:00,
2013-02-05 13:56:00,40.0,28.0,29.89,ESE,120,0.0,-999.0,63,-99.99,,,0.00,156,weatherlink.com 1.10,2013-02-05 18:56:00,
2013-02-05 14:11:00,40.2,29.0,29.88,ESE,109,0.0,-999.0,64,-99.99,,,0.00,186,weatherlink.com 1.10,2013-02-05 19:11:00,
2013-02-05 14:26:00,40.5,29.0,29.88,ENE,69,0.0,-999.0,64,-99.99,,,0.00,172,weatherlink.com 1.10,2013-02-05 19:26:00,
2013-02-05 14:41:00,40.7,29.0,29.89,WNW,296,1.0,-999.0,64,-99.99,,,0.00,135,weatherlink.com 1.10,2013-02-05 19:41:00,
2013-02-05 14:56:00,40.6,29.0,29.89,WNW,294,2.0,-999.0,64,-99.99,,,0.00,139,weatherlink.com 1.10,2013-02-05 19:56:00,
2013-02-05 15:11:00,40.6,29.0,29.89,WNW,294,0.0,-999.0,64,-99.99,,,0.00,93,weatherlink.com 1.10,2013-02-05 20:11:00,
2013-02-05 15:26:00,40.7,29.0,29.89,WNW,294,0.0,-999.0,64,-99.99,,,0.00,113,weatherlink.com 1.10,2013-02-05 20:26:00,
2013-02-05 15:41:00,40.8,30.0,29.89,WNW,294,0.0,-999.0,65,-99.99,,,0.00,95,weatherlink.com 1.10,2013-02-05 20:41:00,
2013-02-05 15:56:00,40.6,30.0,29.89,WNW,294,0.0,-999.0,65,-99.99,,,0.00,70,weatherlink.com 1.10,2013-02-05 20:56:00,
2013-02-05 16:11:00,40.4,30.0,29.89,WNW,294,0.0,-999.0,66,-99.99,,,0.00,56,weatherlink.com 1.10,2013-02-05 21:11:00,
2013-02-05 16:26:00,40.2,30.0,29.89,WNW,294,1.0,-999.0,66,-99.99,,,0.00,49,weatherlink.com 1.10,2013-02-05 21:26:00,
2013-02-05 16:41:00,40.0,29.0,29.89,ENE,61,0.0,-999.0,66,-99.99,,,0.00,40,weatherlink.com 1.10,2013-02-05 21:41:00,
2013-02-05 16:56:00,39.8,30.0,29.89,ENE,61,0.0,-999.0,67,-99.99,,,0.00,25,weatherlink.com 1.10,2013-02-05 21:56:00,
2013-02-05 17:11:00,39.5,30.0,29.90,WNW,285,0.0,-999.0,68,-99.99,,,0.00,18,weatherlink.com 1.10,2013-02-05 22:11:00,
2013-02-05 17:26:00,39.0,30.0,29.90,WNW,285,0.0,-999.0,69,-99.99,,,0.00,7,weatherlink.com 1.10,2013-02-05 22:26:00,
2013-02-05 17:41:00,38.7,30.0,29.90,WNW,285,0.0,-999.0,70,-99.99,,,0.00,0,weatherlink.com 1.10,2013-02-05 22:41:00,
2013-02-05 17:56:00,38.4,29.0,29.90,NW,304,0.0,-999.0,70,-99.99,,,0.00,0,weatherlink.com 1.10,2013-02-05 22:56:00,
2013-02-05 18:11:00,38.0,30.0,29.90,NW,304,0.0,-999.0,72,-99.99,,,0.00,0,weatherlink.com 1.10,2013-02-05 23:11:00,
2013-02-05 18:26:00,37.6,30.0,29.90,NW,304,0.0,-999.0,73,-99.99,,,0.00,0,weatherlink.com 1.10,2013-02-05 23:26:00,
2013-02-05 18:41:00,37.6,30.0,29.91,NW,304,0.0,-999.0,73,-99.99,,,0.00,0,weatherlink.com 1.10,2013-02-05 23:41:00,
2013-02-05 18:56:00,37.4,30.0,29.91,NW,304,0.0,-999.0,74,-99.99,,,0.00,0,weatherlink.com 1.10,2013-02-05 23:56:00,
2013-02-05 19:11:00,36.9,29.0,29.91,NW,304,0.0,-999.0,74,-99.99,,,0.00,0,weatherlink.com 1.10,2013-02-06 00:11:00,
2013-02-05 19:26:00,36.7,30.0,29.92,NW,304,0.0,-999.0,76,-99.99,,,0.00,0,weatherlink.com 1.10,2013-02-06 00:26:00,
2013-02-05 19:41:00,36.8,30.0,29.91,NW,304,0.0,-999.0,75,-99.99,,,0.00,0,weatherlink.com 1.10,2013-02-06 00:41:00,
2013-02-05 19:57:00,36.6,30.0,29.92,NW,304,0.0,-999.0,76,-99.99,,,0.00,0,weatherlink.com 1.10,2013-02-06 00:57:00,
2013-02-05 20:12:00,36.2,29.0,29.92,NW,304,0.0,-999.0,76,-99.99,,,0.00,0,weatherlink.com 1.10,2013-02-06 01:12:00,
2013-02-05 20:27:00,35.7,29.0,29.93,NW,304,0.0,-999.0,78,-99.99,,,0.00,0,weatherlink.com 1.10,2013-02-06 01:27:00,
2013-02-05 20:42:00,35.3,29.0,29.93,NW,304,0.0,-999.0,79,-99.99,,,0.00,0,weatherlink.com 1.10,2013-02-06 01:42:00,
2013-02-05 20:57:00,35.2,30.0,29.93,NW,304,0.0,-999.0,81,-99.99,,,0.00,0,weatherlink.com 1.10,2013-02-06 01:57:00,
2013-02-05 21:12:00,35.0,30.0,29.94,NW,304,0.0,-999.0,82,-99.99,,,0.00,0,weatherlink.com 1.10,2013-02-06 02:12:00,
2013-02-05 21:27:00,34.8,30.0,29.95,NW,305,0.0,-999.0,84,-99.99,,,0.00,0,weatherlink.com 1.10,2013-02-06 02:27:00,
2013-02-05 21:42:00,34.7,30.0,29.95,NW,304,0.0,-999.0,84,-99.99,,,0.00,0,weatherlink.com 1.10,2013-02-06 02:42:00,
2013-02-05 21:57:00,34.6,31.0,29.96,NW,305,0.0,-999.0,86,-99.99,,,0.00,0,weatherlink.com 1.10,2013-02-06 02:57:00,
2013-02-05 22:12:00,34.7,31.0,29.96,NW,304,0.0,-999.0,87,-99.99,,,0.00,0,weatherlink.com 1.10,2013-02-06 03:12:00,
2013-02-05 22:27:00,34.7,31.0,29.96,NW,304,0.0,-999.0,87,-99.99,,,0.00,0,weatherlink.com 1.10,2013-02-06 03:27:00,
2013-02-05 22:42:00,34.8,31.0,29.96,NW,304,0.0,-999.0,87,-99.99,,,0.00,0,weatherlink.com 1.10,2013-02-06 03:42:00,
2013-02-05 22:57:00,34.8,31.0,29.96,NW,304,0.0,-999.0,87,-99.99,,,0.00,0,weatherlink.com 1.10,2013-02-06 03:57:00,
2013-02-05 23:12:00,34.8,31.0,29.96,NW,304,0.0,-999.0,87,-99.99,,,0.00,0,weatherlink.com 1.10,2013-02-06 04:12:00,
2013-02-05 23:27:00,34.7,31.0,29.96,NW,304,0.0,-999.0,87,-99.99,,,0.00,0,weatherlink.com 1.10,2013-02-06 04:27:00,
2013-02-05 23:42:00,34.6,31.0,29.97,NW,304,0.0,-999.0,87,-99.99,,,0.00,0,weatherlink.com 1.10,2013-02-06 04:42:00,
2013-02-05 23:57:00,34.6,31.0,29.97,NW,305,0.0,-999.0,88,-99.99,,,0.00,0,weatherlink.com 1.10,2013-02-06 04:57:00,